createdAt,value
2024-03-05T00:00:14.279Z,111.22
2024-03-05T00:01:14.388Z,109.24
2024-03-05T00:02:14.418Z,109.67
2024-03-05T00:03:14.336Z,110.68
2024-03-05T00:04:14.430Z,109.13
2024-03-05T00:05:14.415Z,108.47
2024-03-05T00:06:14.425Z,109.51
2024-03-05T00:07:14.477Z,109.20
2024-03-05T00:08:14.474Z,110.96
2024-03-05T00:09:14.543Z,108.13
2024-03-05T00:10:14.810Z,110.34
2024-03-05T00:11:14.695Z,109.43
2024-03-05T00:12:14.834Z,110.32
2024-03-05T00:13:14.626Z,110.28
2024-03-05T00:14:14.635Z,110.94
2024-03-05T00:15:14.619Z,109.16
2024-03-05T00:16:14.679Z,108.63
2024-03-05T00:17:14.680Z,108.15
2024-03-05T00:18:14.707Z,109.80
2024-03-05T00:19:14.758Z,109.78
2024-03-05T00:20:14.773Z,109.39
2024-03-05T00:21:14.820Z,108.35
2024-03-05T00:22:14.869Z,109.83
2024-03-05T00:23:14.849Z,110.27
2024-03-05T00:24:14.838Z,108.73
2024-03-05T00:25:14.921Z,107.67
2024-03-05T00:26:14.912Z,107.93
2024-03-05T00:27:14.951Z,112.20
2024-03-05T00:28:14.992Z,111.64
2024-03-05T00:29:15.021Z,110.62
2024-03-05T00:30:15.496Z,109.26
2024-03-05T00:31:15.097Z,110.02
2024-03-05T00:32:15.115Z,110.84
2024-03-05T00:33:15.219Z,108.81
2024-03-05T00:34:15.212Z,108.78
2024-03-05T00:35:15.240Z,108.15
2024-03-05T00:36:15.236Z,108.39
2024-03-05T00:37:15.315Z,109.30
2024-03-05T00:38:22.186Z,110.36
2024-03-05T00:39:16.298Z,110.42
2024-03-05T00:40:15.342Z,110.53
2024-03-05T00:41:15.292Z,109.14
2024-03-05T00:42:15.326Z,109.70
2024-03-05T00:43:15.339Z,109.82
2024-03-05T00:44:15.337Z,106.64
2024-03-05T00:45:15.301Z,110.04
2024-03-05T00:46:15.335Z,108.94
2024-03-05T00:47:15.327Z,108.03
2024-03-05T00:48:15.319Z,109.08
2024-03-05T00:49:15.425Z,109.35
2024-03-05T00:50:15.418Z,108.07
2024-03-05T00:51:15.437Z,107.60
2024-03-05T00:52:15.507Z,108.65
2024-03-05T00:53:15.559Z,108.97
2024-03-05T00:54:15.671Z,109.25
2024-03-05T00:55:15.716Z,109.21
2024-03-05T00:56:15.776Z,109.03
2024-03-05T00:57:15.846Z,109.16
2024-03-05T00:58:15.873Z,109.57
2024-03-05T00:59:15.898Z,106.92
2024-03-05T01:00:15.972Z,106.48
2024-03-05T01:01:16.053Z,108.20
2024-03-05T01:02:16.110Z,109.69
2024-03-05T01:03:16.084Z,108.17
2024-03-05T01:04:16.108Z,108.40
2024-03-05T01:05:16.180Z,108.66
2024-03-05T01:06:16.201Z,109.94
2024-03-05T01:07:16.450Z,107.20
2024-03-05T01:08:16.218Z,110.25
2024-03-05T01:09:16.251Z,108.26
2024-03-05T01:10:16.310Z,108.54
2024-03-05T01:11:16.362Z,108.94
2024-03-05T01:12:16.329Z,108.90
2024-03-05T01:13:16.391Z,106.48
2024-03-05T01:14:16.351Z,108.65
2024-03-05T01:15:16.395Z,109.18
2024-03-05T01:16:16.464Z,108.62
2024-03-05T01:17:16.462Z,109.93
2024-03-05T01:18:16.459Z,107.67
2024-03-05T01:19:16.515Z,107.31
2024-03-05T01:20:16.503Z,107.46
2024-03-05T01:21:16.512Z,105.98
2024-03-05T01:22:16.677Z,107.10
2024-03-05T01:23:16.542Z,107.75
2024-03-05T01:24:16.531Z,109.46
2024-03-05T01:25:16.584Z,107.03
2024-03-05T01:26:16.601Z,109.04
2024-03-05T01:27:16.603Z,105.46
2024-03-05T01:28:16.667Z,108.32
2024-03-05T01:29:16.616Z,107.98
2024-03-05T01:30:16.616Z,106.63
2024-03-05T01:31:16.792Z,110.10
2024-03-05T01:32:16.685Z,107.02
2024-03-05T01:33:16.756Z,106.69
2024-03-05T01:34:16.734Z,108.59
2024-03-05T01:35:16.739Z,109.50
2024-03-05T01:36:16.796Z,108.37
2024-03-05T01:37:16.776Z,108.11
2024-03-05T01:38:16.775Z,107.85
2024-03-05T01:39:16.775Z,107.09
2024-03-05T01:40:16.830Z,107.96
2024-03-05T01:41:16.793Z,107.75
2024-03-05T01:42:16.808Z,108.27
2024-03-05T01:43:16.916Z,107.10
2024-03-05T01:44:16.901Z,108.98
2024-03-05T01:45:16.914Z,107.76
2024-03-05T01:46:17.002Z,109.14
2024-03-05T01:47:17.013Z,107.14
2024-03-05T01:48:17.017Z,108.07
2024-03-05T01:49:17.061Z,108.01
2024-03-05T01:50:17.031Z,107.86
2024-03-05T01:51:17.049Z,109.09
2024-03-05T01:52:17.130Z,107.49
2024-03-05T01:53:17.105Z,108.28
2024-03-05T01:54:17.198Z,105.54
2024-03-05T01:55:17.236Z,108.53
2024-03-05T01:56:17.177Z,108.27
2024-03-05T01:57:17.221Z,107.71
2024-03-05T01:58:17.255Z,107.71
2024-03-05T01:59:17.273Z,105.41
2024-03-05T02:00:17.316Z,106.31
2024-03-05T02:01:17.446Z,109.39
2024-03-05T02:02:17.385Z,107.92
2024-03-05T02:03:17.383Z,107.45
2024-03-05T02:04:17.414Z,104.73
2024-03-05T02:05:17.391Z,106.84
2024-03-05T02:06:17.423Z,108.59
2024-03-05T02:07:17.465Z,107.16
2024-03-05T02:08:19.065Z,108.03
2024-03-05T02:09:17.518Z,107.29
2024-03-05T02:10:17.592Z,109.13
2024-03-05T02:11:17.570Z,106.40
2024-03-05T02:12:17.630Z,108.87
2024-03-05T02:13:17.634Z,107.43
2024-03-05T02:14:17.669Z,106.92
2024-03-05T02:15:17.667Z,106.61
2024-03-05T02:16:17.710Z,105.76
2024-03-05T02:17:18.379Z,108.05
2024-03-05T02:18:17.733Z,108.00
2024-03-05T02:19:17.761Z,106.59
2024-03-05T02:20:17.778Z,105.60
2024-03-05T02:21:17.810Z,107.14
2024-03-05T02:22:17.872Z,106.07
2024-03-05T02:23:17.826Z,105.64
2024-03-05T02:24:17.844Z,105.50
2024-03-05T02:25:19.369Z,106.26
2024-03-05T02:26:17.909Z,106.09
2024-03-05T02:27:23.810Z,105.72
2024-03-05T02:28:18.984Z,105.88
2024-03-05T02:29:17.948Z,106.34
2024-03-05T02:30:17.948Z,106.57
2024-03-05T02:31:17.959Z,106.33
2024-03-05T02:32:17.945Z,107.82
2024-03-05T02:33:17.946Z,106.81
2024-03-05T02:34:17.999Z,107.66
2024-03-05T02:35:17.970Z,107.49
2024-03-05T02:36:17.956Z,107.76
2024-03-05T02:37:18.026Z,107.76
2024-03-05T02:38:17.964Z,108.09
2024-03-05T02:39:17.944Z,106.79
2024-03-05T02:40:18.017Z,105.94
2024-03-05T02:41:18.011Z,106.23
2024-03-05T02:42:18.044Z,104.98
2024-03-05T02:43:18.085Z,104.74
2024-03-05T02:44:18.018Z,107.57
2024-03-05T02:45:18.027Z,105.36
2024-03-05T02:46:18.067Z,106.67
2024-03-05T02:47:18.077Z,106.47
2024-03-05T02:48:18.024Z,105.68
2024-03-05T02:49:18.080Z,107.79
2024-03-05T02:50:18.050Z,103.75
2024-03-05T02:51:18.126Z,108.56
2024-03-05T02:52:18.164Z,105.20
2024-03-05T02:53:18.081Z,105.21
2024-03-05T02:54:18.064Z,106.30
2024-03-05T02:55:18.103Z,107.45
2024-03-05T02:56:18.070Z,107.12
2024-03-05T02:57:18.090Z,105.73
2024-03-05T02:58:18.138Z,103.66
2024-03-05T02:59:18.058Z,107.07
2024-03-05T03:00:18.068Z,104.24
2024-03-05T03:01:18.114Z,106.16
2024-03-05T03:02:18.096Z,107.49
2024-03-05T03:03:18.086Z,104.55
2024-03-05T03:04:18.142Z,105.47
2024-03-05T03:05:18.141Z,107.35
2024-03-05T03:06:18.156Z,104.39
2024-03-05T03:07:18.231Z,105.08
2024-03-05T03:08:18.169Z,104.70
2024-03-05T03:09:18.180Z,104.88
2024-03-05T03:10:18.194Z,107.47
2024-03-05T03:11:18.367Z,107.73
2024-03-05T03:12:18.224Z,105.82
2024-03-05T03:13:18.223Z,106.07
2024-03-05T03:14:18.224Z,104.94
2024-03-05T03:15:18.212Z,104.49
2024-03-05T03:16:18.240Z,107.65
2024-03-05T03:17:18.236Z,104.79
2024-03-05T03:18:18.317Z,104.85
2024-03-05T03:19:18.239Z,106.37
2024-03-05T03:20:18.259Z,105.51
2024-03-05T03:21:18.236Z,104.60
2024-03-05T03:22:18.307Z,105.09
2024-03-05T03:23:18.268Z,105.22
2024-03-05T03:24:18.265Z,104.68
2024-03-05T03:25:18.366Z,104.33
2024-03-05T03:26:18.307Z,103.33
2024-03-05T03:27:18.306Z,103.62
2024-03-05T03:28:18.401Z,105.62
2024-03-05T03:29:18.306Z,105.67
2024-03-05T03:30:18.330Z,105.63
2024-03-05T03:31:18.392Z,106.65
2024-03-05T03:32:18.337Z,105.08
2024-03-05T03:33:18.354Z,103.84
2024-03-05T03:34:18.499Z,105.05
2024-03-05T03:35:18.379Z,105.97
2024-03-05T03:36:18.393Z,104.46
2024-03-05T03:37:18.425Z,105.88
2024-03-05T03:38:18.428Z,103.71
2024-03-05T03:39:18.434Z,103.79
2024-03-05T03:40:18.545Z,104.40
2024-03-05T03:41:18.439Z,104.36
2024-03-05T03:42:18.468Z,105.13
2024-03-05T03:43:18.517Z,103.57
2024-03-05T03:44:18.478Z,105.67
2024-03-05T03:45:18.554Z,106.08
2024-03-05T03:46:18.510Z,103.68
2024-03-05T03:47:18.509Z,104.01
2024-03-05T03:48:18.515Z,106.33
2024-03-05T03:49:18.577Z,106.25
2024-03-05T03:50:18.531Z,105.73
2024-03-05T03:51:18.541Z,104.30
2024-03-05T03:52:18.577Z,105.54
2024-03-05T03:53:18.562Z,105.69
2024-03-05T03:54:18.605Z,103.32
2024-03-05T03:55:18.631Z,104.01
2024-03-05T03:56:18.623Z,106.19
2024-03-05T03:57:18.630Z,105.08
2024-03-05T03:58:18.666Z,106.00
2024-03-05T03:59:18.637Z,103.46
2024-03-05T04:00:19.210Z,105.57
2024-03-05T04:01:18.762Z,105.91
2024-03-05T04:02:18.662Z,103.41
2024-03-05T04:03:18.698Z,104.10
2024-03-05T04:04:18.707Z,104.33
2024-03-05T04:05:18.744Z,103.76
2024-03-05T04:06:18.684Z,104.38
2024-03-05T04:07:18.687Z,105.84
2024-03-05T04:08:18.694Z,104.88
2024-03-05T04:09:18.681Z,104.09
2024-03-05T04:10:18.765Z,103.28
2024-03-05T04:11:18.762Z,103.64
2024-03-05T04:12:18.723Z,106.64
2024-03-05T04:13:19.209Z,104.91
2024-03-05T04:14:19.007Z,104.40
2024-03-05T04:15:18.733Z,105.46
2024-03-05T04:16:18.760Z,104.59
2024-03-05T04:17:25.951Z,50.00
2024-03-05T04:18:25.920Z,50.00
2024-03-05T04:19:25.954Z,50.00
2024-03-05T04:20:25.948Z,50.00
2024-03-05T04:21:25.927Z,50.00
2024-03-05T04:22:25.937Z,51.31
2024-03-05T04:23:25.943Z,50.83
2024-03-05T04:24:25.929Z,50.58
2024-03-05T04:25:25.945Z,52.01
2024-03-05T04:26:25.946Z,51.09
2024-03-05T04:27:25.937Z,51.29
2024-03-05T04:28:25.957Z,51.77
2024-03-05T04:29:25.947Z,51.76
2024-03-05T04:30:25.923Z,53.78
2024-03-05T04:31:37.743Z,50.00
2024-03-05T04:32:34.216Z,50.00
2024-03-05T04:33:33.135Z,50.00
2024-03-05T04:34:33.244Z,50.00
2024-03-05T04:35:33.128Z,50.00
2024-03-05T04:36:33.098Z,50.00
2024-03-05T04:37:33.325Z,51.74
2024-03-05T04:38:33.117Z,50.03
2024-03-05T04:39:33.113Z,50.82
2024-03-05T04:40:33.170Z,51.54
2024-03-05T04:41:33.108Z,51.38
2024-03-05T04:42:33.257Z,51.96
2024-03-05T04:43:33.179Z,51.38
2024-03-05T04:44:33.241Z,51.87
2024-03-05T04:45:33.246Z,52.12
2024-03-05T04:46:33.358Z,53.79
2024-03-05T04:47:33.405Z,51.19
2024-03-05T04:48:33.423Z,51.30
2024-03-05T04:49:33.486Z,54.54
2024-03-05T04:50:33.533Z,52.59
2024-03-05T04:51:33.617Z,52.77
2024-03-05T04:52:33.695Z,52.09
2024-03-05T04:53:33.736Z,52.88
2024-03-05T04:54:33.773Z,51.33
2024-03-05T04:55:33.915Z,52.20
2024-03-05T04:56:33.892Z,54.27
2024-03-05T04:57:33.976Z,51.55
2024-03-05T04:58:34.084Z,52.44
2024-03-05T04:59:34.094Z,53.44
2024-03-05T05:00:34.123Z,51.41
2024-03-05T05:01:34.357Z,53.05
2024-03-05T05:02:34.258Z,53.96
2024-03-05T05:03:34.317Z,53.03
2024-03-05T05:04:34.406Z,52.46
2024-03-05T05:05:34.430Z,53.82
2024-03-05T05:06:34.523Z,51.67
2024-03-05T05:07:34.649Z,51.97
2024-03-05T05:08:34.647Z,54.24
2024-03-05T05:09:34.707Z,54.51
2024-03-05T05:10:34.820Z,54.70
2024-03-05T05:11:34.904Z,54.78
2024-03-05T05:12:34.915Z,54.50
2024-03-05T05:13:35.030Z,52.95
2024-03-05T05:14:38.705Z,52.30
2024-03-05T05:15:35.106Z,52.39
2024-03-05T05:16:35.063Z,52.75
2024-03-05T05:17:35.074Z,53.09
2024-03-05T05:18:35.088Z,52.73
2024-03-05T05:19:35.097Z,54.25
2024-03-05T05:20:35.077Z,53.69
2024-03-05T05:21:35.061Z,54.22
2024-03-05T05:22:35.189Z,51.65
2024-03-05T05:23:35.093Z,50.67
2024-03-05T05:24:35.087Z,52.55
2024-03-05T05:25:35.103Z,54.47
2024-03-05T05:26:35.085Z,53.54
2024-03-05T05:27:35.092Z,53.41
2024-03-05T05:28:35.160Z,54.12
2024-03-05T05:29:40.322Z,52.51
2024-03-05T05:30:36.107Z,52.64
2024-03-05T05:31:35.148Z,53.24
2024-03-05T05:32:35.110Z,53.40
2024-03-05T05:33:35.139Z,53.68
2024-03-05T05:34:35.152Z,53.60
2024-03-05T05:35:35.118Z,52.26
2024-03-05T05:36:35.145Z,52.50
2024-03-05T05:37:35.178Z,54.68
2024-03-05T05:38:35.258Z,53.37
2024-03-05T05:39:35.246Z,55.33
2024-03-05T05:40:35.339Z,54.88
2024-03-05T05:41:35.383Z,51.63
2024-03-05T05:42:35.466Z,53.06
2024-03-05T05:43:35.573Z,53.85
2024-03-05T05:44:35.593Z,52.43
2024-03-05T05:45:35.638Z,54.71
2024-03-05T05:46:35.782Z,51.70
2024-03-05T05:47:35.838Z,53.45
2024-03-05T05:48:35.902Z,52.36
2024-03-05T05:49:35.958Z,53.94
2024-03-05T05:50:35.972Z,53.63
2024-03-05T05:51:36.066Z,53.91
2024-03-05T05:52:36.133Z,52.86
2024-03-05T05:53:36.164Z,54.31
2024-03-05T05:54:36.239Z,53.49
2024-03-05T05:55:36.369Z,53.85
2024-03-05T05:56:36.384Z,54.39
2024-03-05T05:57:36.465Z,53.76
2024-03-05T05:58:36.637Z,51.97
2024-03-05T05:59:36.586Z,53.23
2024-03-05T06:00:37.640Z,52.47
2024-03-05T06:01:36.814Z,51.89
2024-03-05T06:02:36.876Z,52.37
2024-03-05T06:03:36.876Z,51.50
2024-03-05T06:04:36.965Z,50.69
2024-03-05T06:05:36.967Z,52.80
2024-03-05T06:06:37.042Z,51.53
2024-03-05T06:07:37.139Z,55.04
2024-03-05T06:08:37.190Z,53.91
2024-03-05T06:09:37.236Z,53.17
2024-03-05T06:10:37.376Z,53.99
2024-03-05T06:11:37.415Z,52.90
2024-03-05T06:12:37.442Z,54.98
2024-03-05T06:13:37.553Z,53.61
2024-03-05T06:14:37.582Z,53.03
2024-03-05T06:15:37.676Z,51.74
2024-03-05T06:16:37.762Z,51.84
2024-03-05T06:17:37.785Z,52.11
2024-03-05T06:18:37.821Z,53.02
2024-03-05T06:19:37.956Z,52.13
2024-03-05T06:20:37.960Z,51.71
2024-03-05T06:21:37.998Z,51.58
2024-03-05T06:22:38.083Z,51.44
2024-03-05T06:23:38.133Z,52.15
2024-03-05T06:24:38.210Z,50.00
2024-03-05T06:25:38.291Z,50.22
2024-03-05T06:26:38.373Z,51.64
2024-03-05T06:27:38.411Z,54.83
2024-03-05T06:28:38.485Z,52.05
2024-03-05T06:29:38.514Z,53.35
2024-03-05T06:30:38.595Z,50.88
2024-03-05T06:31:38.695Z,50.00
2024-03-05T06:32:38.698Z,51.99
2024-03-05T06:33:38.791Z,50.00
2024-03-05T06:34:38.841Z,51.72
2024-03-05T06:35:38.878Z,50.89
2024-03-05T06:36:38.948Z,51.87
2024-03-05T06:37:39.020Z,51.75
2024-03-05T06:38:39.065Z,64.11
2024-03-05T06:39:39.192Z,74.22
2024-03-05T06:40:39.204Z,80.17
2024-03-05T06:41:39.241Z,82.85
2024-03-05T06:42:39.321Z,86.65
2024-03-05T06:43:39.948Z,90.86
2024-03-05T06:44:39.342Z,96.27
2024-03-05T06:45:39.405Z,97.19
2024-03-05T06:46:39.495Z,101.97
2024-03-05T06:47:39.483Z,103.66
2024-03-05T06:48:39.636Z,103.26
2024-03-05T06:49:39.568Z,106.04
2024-03-05T06:50:39.623Z,107.37
2024-03-05T06:51:39.483Z,111.89
2024-03-05T06:52:39.609Z,113.77
2024-03-05T06:53:39.556Z,122.30
2024-03-05T06:54:39.588Z,123.77
2024-03-05T06:55:39.677Z,128.15
2024-03-05T06:56:39.606Z,136.91
2024-03-05T06:57:39.689Z,143.55
2024-03-05T06:58:39.815Z,150.64
2024-03-05T06:59:39.820Z,155.51
2024-03-05T07:00:41.918Z,159.38
2024-03-05T07:01:40.131Z,165.93
2024-03-05T07:02:39.905Z,169.64
2024-03-05T07:03:39.908Z,177.99
2024-03-05T07:04:40.058Z,179.59
2024-03-05T07:05:39.932Z,187.35
2024-03-05T07:06:39.914Z,189.85
2024-03-05T07:07:40.052Z,196.79
2024-03-05T07:08:39.907Z,200.00
2024-03-05T07:09:39.921Z,199.98
2024-03-05T07:10:40.056Z,200.00
2024-03-05T07:11:40.069Z,200.00
2024-03-05T07:12:39.908Z,200.00
2024-03-05T07:13:42.307Z,197.95
2024-03-05T07:14:39.981Z,198.33
2024-03-05T07:15:39.920Z,199.99
2024-03-05T07:16:39.998Z,204.34
2024-03-05T07:17:39.929Z,211.30
2024-03-05T07:18:40.311Z,225.01
2024-03-05T07:19:39.938Z,214.14
2024-03-05T07:20:40.041Z,201.04
2024-03-05T07:21:39.930Z,200.00
2024-03-05T07:22:40.046Z,200.00
2024-03-05T07:23:39.994Z,199.88
2024-03-05T07:24:39.979Z,199.65
2024-03-05T07:25:40.013Z,200.00
2024-03-05T07:26:42.758Z,200.00
2024-03-05T07:27:40.938Z,200.16
2024-03-05T07:28:40.304Z,201.12
2024-03-05T07:29:39.918Z,203.41
2024-03-05T07:30:39.933Z,207.84
2024-03-05T07:31:39.969Z,214.34
2024-03-05T07:32:40.004Z,206.58
2024-03-05T07:33:40.200Z,200.00
2024-03-05T07:34:40.017Z,199.87
2024-03-05T07:35:39.926Z,199.68
2024-03-05T07:36:39.951Z,200.00
2024-03-05T07:37:39.980Z,197.89
2024-03-05T07:38:40.008Z,195.21
2024-03-05T07:39:39.956Z,191.73
2024-03-05T07:40:40.003Z,187.46
2024-03-05T07:41:40.125Z,180.88
2024-03-05T07:42:40.137Z,170.87
2024-03-05T07:43:40.191Z,175.45
2024-03-05T07:44:40.480Z,172.63
2024-03-05T07:45:40.289Z,168.93
2024-03-05T07:46:40.269Z,165.25
2024-03-05T07:47:40.270Z,161.99
2024-03-05T07:48:40.360Z,154.01
2024-03-05T07:49:40.321Z,152.66
2024-03-05T07:50:40.334Z,149.18
2024-03-05T07:51:44.726Z,147.57
2024-03-05T07:52:41.367Z,146.02
2024-03-05T07:53:42.590Z,142.99
2024-03-05T07:54:40.558Z,140.80
2024-03-05T07:55:46.295Z,132.67
2024-03-05T07:56:41.610Z,133.57
2024-03-05T07:57:40.544Z,131.76
2024-03-05T07:58:40.605Z,127.72
2024-03-05T07:59:40.581Z,125.41
2024-03-05T08:00:40.676Z,122.14
2024-03-05T08:01:40.596Z,120.74
2024-03-05T08:02:40.571Z,118.89
2024-03-05T08:03:40.581Z,118.22
2024-03-05T08:04:40.689Z,117.14
2024-03-05T08:05:40.564Z,116.25
2024-03-05T08:06:40.558Z,116.00
2024-03-05T08:07:40.587Z,112.46
2024-03-05T08:08:40.798Z,111.53
2024-03-05T08:09:40.580Z,110.84
2024-03-05T08:10:40.637Z,109.95
2024-03-05T08:11:40.681Z,109.57
2024-03-05T08:12:40.573Z,108.19
2024-03-05T08:13:40.839Z,105.73
2024-03-05T08:14:40.569Z,99.94
2024-03-05T08:15:40.573Z,99.66
2024-03-05T08:16:41.189Z,93.98
2024-03-05T08:17:40.625Z,93.62
2024-03-05T08:18:40.815Z,90.07
2024-03-05T08:19:40.610Z,87.09
2024-03-05T08:20:40.644Z,88.83
2024-03-05T08:21:40.616Z,88.75
2024-03-05T08:22:40.678Z,86.82
2024-03-05T08:23:40.584Z,87.41
2024-03-05T08:24:40.659Z,80.35
2024-03-05T08:25:40.640Z,79.30
2024-03-05T08:26:40.593Z,78.69
2024-03-05T08:27:40.607Z,77.54
2024-03-05T08:28:40.665Z,74.72
2024-03-05T08:29:40.673Z,72.63
2024-03-05T08:30:40.657Z,70.89
2024-03-05T08:31:40.822Z,66.75
2024-03-05T08:32:40.742Z,64.81
2024-03-05T08:33:40.726Z,61.75
2024-03-05T08:34:40.767Z,60.23
2024-03-05T08:35:40.850Z,57.52
2024-03-05T08:36:40.962Z,56.40
2024-03-05T08:37:40.857Z,55.91
2024-03-05T08:38:40.849Z,55.66
2024-03-05T08:39:40.862Z,52.30
2024-03-05T08:40:40.909Z,51.17
2024-03-05T08:41:40.905Z,50.41
2024-03-05T08:42:40.921Z,49.84
2024-03-05T08:43:41.322Z,50.00
2024-03-05T08:44:40.920Z,50.91
2024-03-05T08:45:40.953Z,50.51
2024-03-05T08:46:40.955Z,50.84
2024-03-05T08:47:40.977Z,50.15
2024-03-05T08:48:40.994Z,50.00
2024-03-05T08:49:41.034Z,50.60
2024-03-05T08:50:41.321Z,50.70
2024-03-05T08:51:41.041Z,50.95
2024-03-05T08:52:41.219Z,50.52
2024-03-05T08:53:41.078Z,51.78
2024-03-05T08:54:41.086Z,52.25
2024-03-05T08:55:41.145Z,53.14
2024-03-05T08:56:41.134Z,52.85
2024-03-05T08:57:41.142Z,52.18
2024-03-05T08:58:41.164Z,53.27
2024-03-05T08:59:41.150Z,53.76
2024-03-05T09:00:43.445Z,54.93
2024-03-05T09:01:41.251Z,57.80
2024-03-05T09:02:41.151Z,57.22
2024-03-05T09:03:41.153Z,57.34
2024-03-05T09:04:41.202Z,56.94
2024-03-05T09:05:44.064Z,54.44
2024-03-05T09:06:42.151Z,54.51
2024-03-05T09:07:41.206Z,55.10
2024-03-05T09:08:41.166Z,56.10
2024-03-05T09:09:41.165Z,57.75
2024-03-05T09:10:41.468Z,61.01
2024-03-05T09:11:41.277Z,61.52
2024-03-05T09:12:41.182Z,63.39
2024-03-05T09:13:41.245Z,63.90
2024-03-05T09:14:41.165Z,65.78
2024-03-05T09:15:43.824Z,67.07
2024-03-05T09:16:41.259Z,69.58
2024-03-05T09:17:41.214Z,69.90
2024-03-05T09:18:41.337Z,70.98
2024-03-05T09:19:41.179Z,71.93
2024-03-05T09:20:41.222Z,72.55
2024-03-05T09:21:41.197Z,74.66
2024-03-05T09:22:41.256Z,73.43
2024-03-05T09:23:41.230Z,67.81
2024-03-05T09:24:41.190Z,67.81
2024-03-05T09:25:41.200Z,61.56
2024-03-05T09:26:41.206Z,56.93
2024-03-05T09:27:41.194Z,51.16
2024-03-05T09:28:41.386Z,49.55
2024-03-05T09:29:41.280Z,50.77
2024-03-05T09:30:41.218Z,50.00
2024-03-05T09:31:41.254Z,50.34
2024-03-05T09:32:41.857Z,50.12
2024-03-05T09:33:41.218Z,50.00
2024-03-05T09:34:41.277Z,50.56
2024-03-05T09:35:41.359Z,50.00
2024-03-05T09:36:42.863Z,49.94
2024-03-05T09:37:41.270Z,50.00
2024-03-05T09:38:41.846Z,50.30
2024-03-05T09:39:41.216Z,50.71
2024-03-05T09:40:41.234Z,50.15
2024-03-05T09:41:41.244Z,51.48
2024-03-05T09:42:41.231Z,52.21
2024-03-05T09:43:41.263Z,51.15
2024-03-05T09:44:41.224Z,53.97
2024-03-05T09:45:41.249Z,54.48
2024-03-05T09:46:41.252Z,52.98
2024-03-05T09:47:41.277Z,54.65
2024-03-05T09:48:41.247Z,55.82
2024-03-05T09:49:41.253Z,55.37
2024-03-05T09:50:41.236Z,56.36
2024-03-05T09:51:41.247Z,55.31
2024-03-05T09:52:41.330Z,57.37
2024-03-05T09:53:41.354Z,59.87
2024-03-05T09:54:41.236Z,61.09
2024-03-05T09:55:41.272Z,62.00
2024-03-05T09:56:41.238Z,62.72
2024-03-05T09:57:41.251Z,62.96
2024-03-05T09:58:41.395Z,64.72
2024-03-05T09:59:41.291Z,63.76
2024-03-05T10:00:41.260Z,62.45
2024-03-05T10:01:41.375Z,64.25
2024-03-05T10:02:41.390Z,64.26
2024-03-05T10:03:41.322Z,66.39
2024-03-05T10:04:41.349Z,67.02
2024-03-05T10:05:41.316Z,65.74
2024-03-05T10:06:41.402Z,66.71
2024-03-05T10:07:41.456Z,67.70
2024-03-05T10:08:41.464Z,68.04
2024-03-05T10:09:41.470Z,65.94
2024-03-05T10:10:41.620Z,68.71
2024-03-05T10:11:41.597Z,67.72
2024-03-05T10:12:41.493Z,65.95
2024-03-05T10:13:41.881Z,67.79
2024-03-05T10:14:42.399Z,67.69
2024-03-05T10:15:41.475Z,68.02
2024-03-05T10:16:41.571Z,70.11
2024-03-05T10:17:41.565Z,70.95
2024-03-05T10:18:42.417Z,74.10
2024-03-05T10:19:41.627Z,74.84
2024-03-05T10:20:41.517Z,75.57
2024-03-05T10:21:41.525Z,77.61
2024-03-05T10:22:41.592Z,79.10
2024-03-05T10:23:41.571Z,78.77
2024-03-05T10:24:41.678Z,79.58
2024-03-05T10:25:41.907Z,79.22
2024-03-05T10:26:41.629Z,79.80
2024-03-05T10:27:41.733Z,79.01
2024-03-05T10:28:41.867Z,78.15
2024-03-05T10:29:41.703Z,76.80
2024-03-05T10:30:41.712Z,79.44
2024-03-05T10:31:41.784Z,80.69
2024-03-05T10:32:41.720Z,80.68
2024-03-05T10:33:41.762Z,79.09
2024-03-05T10:34:41.813Z,79.22
2024-03-05T10:35:42.055Z,78.38
2024-03-05T10:36:41.836Z,76.73
2024-03-05T10:37:41.919Z,75.70
2024-03-05T10:39:41.871Z,78.41
2024-03-05T10:40:41.933Z,76.76
2024-03-05T10:41:47.445Z,76.60
2024-03-05T10:42:42.895Z,76.62
2024-03-05T10:43:42.000Z,76.60
2024-03-05T10:44:41.905Z,74.61
2024-03-05T10:45:42.641Z,74.31
2024-03-05T10:46:41.928Z,75.79
2024-03-05T10:47:41.917Z,73.51
2024-03-05T10:48:42.371Z,73.67
2024-03-05T10:49:42.018Z,74.07
2024-03-05T10:50:42.390Z,74.15
2024-03-05T10:51:41.875Z,73.55
2024-03-05T10:52:41.929Z,74.17
2024-03-05T10:53:42.362Z,74.68
2024-03-05T10:54:41.872Z,74.13
2024-03-05T10:55:42.438Z,74.80
2024-03-05T10:56:44.779Z,74.60
2024-03-05T10:57:41.903Z,75.32
2024-03-05T10:58:41.950Z,74.60
2024-03-05T10:59:41.897Z,73.72
2024-03-05T11:00:41.988Z,73.46
2024-03-05T11:01:42.586Z,72.69
2024-03-05T11:02:41.914Z,72.04
2024-03-05T11:03:41.966Z,71.77
2024-03-05T11:04:41.999Z,70.94
2024-03-05T11:05:41.892Z,69.66
2024-03-05T11:06:41.897Z,69.56
2024-03-05T11:07:42.011Z,67.60
2024-03-05T11:08:41.913Z,67.72
2024-03-05T11:09:41.909Z,69.82
2024-03-05T11:10:41.967Z,70.15
2024-03-05T11:11:41.933Z,69.07
2024-03-05T11:12:41.903Z,68.93
2024-03-05T11:13:42.131Z,69.95
2024-03-05T11:14:41.917Z,71.23
2024-03-05T11:15:42.000Z,72.60
2024-03-05T11:16:41.946Z,72.46
2024-03-05T11:17:41.956Z,74.02
2024-03-05T11:18:41.927Z,74.04
2024-03-05T11:19:41.961Z,74.21
2024-03-05T11:20:41.966Z,75.73
2024-03-05T11:21:41.954Z,75.84
2024-03-05T11:22:41.958Z,76.78
2024-03-05T11:23:41.994Z,78.77
2024-03-05T11:24:41.947Z,79.01
2024-03-05T11:25:41.950Z,79.23
2024-03-05T11:26:41.929Z,81.08
2024-03-05T11:27:41.940Z,80.16
2024-03-05T11:28:41.989Z,80.91
2024-03-05T11:29:41.964Z,80.95
2024-03-05T11:30:42.027Z,80.27
2024-03-05T11:31:42.121Z,81.10
2024-03-05T11:32:42.202Z,82.23
2024-03-05T11:33:42.259Z,81.65
2024-03-05T11:34:42.421Z,83.37
2024-03-05T11:35:42.355Z,82.93
2024-03-05T11:36:42.440Z,84.53
2024-03-05T11:37:42.473Z,83.93
2024-03-05T11:38:42.555Z,84.78
2024-03-05T11:39:42.620Z,86.16
2024-03-05T11:40:42.716Z,85.88
2024-03-05T11:41:42.875Z,86.77
2024-03-05T11:42:42.807Z,86.19
2024-03-05T11:43:42.950Z,87.27
2024-03-05T11:44:43.034Z,86.87
2024-03-05T11:45:43.086Z,87.57
2024-03-05T11:46:43.151Z,87.67
2024-03-05T11:47:43.208Z,88.85
2024-03-05T11:48:43.198Z,88.48
2024-03-05T11:49:43.340Z,87.94
2024-03-05T11:50:43.356Z,89.38
2024-03-05T11:51:43.407Z,88.26
2024-03-05T11:52:43.538Z,89.49
2024-03-05T11:53:43.553Z,89.62
2024-03-05T11:54:43.611Z,87.74
2024-03-05T11:55:43.823Z,89.25
2024-03-05T11:56:43.752Z,89.49
2024-03-05T11:57:43.805Z,90.05
2024-03-05T11:58:43.901Z,90.01
2024-03-05T11:59:43.982Z,90.18
2024-03-05T12:00:43.970Z,89.88
2024-03-05T12:01:44.400Z,90.06
2024-03-05T12:02:44.212Z,91.26
2024-03-05T12:03:44.111Z,91.49
2024-03-05T12:04:44.347Z,91.37
2024-03-05T12:05:44.184Z,91.13
2024-03-05T12:06:44.254Z,92.29
2024-03-05T12:07:44.302Z,91.09
2024-03-05T12:08:44.331Z,91.76
2024-03-05T12:09:44.429Z,92.45
2024-03-05T12:10:44.504Z,92.07
2024-03-05T12:11:44.450Z,92.31
2024-03-05T12:12:44.518Z,93.04
2024-03-05T12:13:44.539Z,92.32
2024-03-05T12:14:44.522Z,92.36
2024-03-05T12:15:44.561Z,92.96
2024-03-05T12:16:44.643Z,92.41
2024-03-05T12:17:44.641Z,93.38
2024-03-05T12:18:44.626Z,93.45
2024-03-05T12:19:44.674Z,92.00
2024-03-05T12:20:44.681Z,91.99
2024-03-05T12:21:44.625Z,92.94
2024-03-05T12:22:44.668Z,93.59
2024-03-05T12:23:44.672Z,93.07
2024-03-05T12:24:44.712Z,94.63
2024-03-05T12:25:44.644Z,93.34
2024-03-05T12:26:44.619Z,93.56
2024-03-05T12:27:44.624Z,93.04
2024-03-05T12:28:44.704Z,92.81
2024-03-05T12:29:44.652Z,93.56
2024-03-05T12:30:44.642Z,94.16
2024-03-05T12:31:44.650Z,94.61
2024-03-05T12:32:44.675Z,93.85
2024-03-05T12:33:44.653Z,94.54
2024-03-05T12:34:44.848Z,94.61
2024-03-05T12:35:44.681Z,94.99
2024-03-05T12:36:44.670Z,94.65
2024-03-05T12:37:44.715Z,95.15
2024-03-05T12:38:44.682Z,95.63
2024-03-05T12:39:44.714Z,95.62
2024-03-05T12:40:44.758Z,95.42
2024-03-05T12:41:44.724Z,96.07
2024-03-05T12:42:44.723Z,95.85